Seabulk Arctic — WCY7054 — position and weather

sailwx.info

Track history (hours):
 
Tides and Currents Weather Stations Pressure Air Temp Water Temp Dewpoint Dewpoint Depression Visibility Wind Speed Wind Dir Waves Ship Positions

Seabulk Arctic

Owner: LIGHTSHIP TANKERS IV LLC, FORT LAUDERDALE, FL. More information available from US FCC via Universal Licensing System and Coast Guard Vessel Documentation Center.

Last reported at 2017-Nov-19 19:18 UTC. Time now 2017-Nov-20 16:55 UTC.
Position N 29°44' W 093°20'.

Type: Tanker. MMSI: 366826000.

Date/timePositionNaut miles runAvg speedWind from/ knotsBaromVisibWave heightAir tempDewpointWater temp
2017-Nov-19 19:18N 29°44' W 093°20'2 8.5
2017-Nov-19 19:00N 29°46' W 093°21'3 6.1
2017-Nov-19 18:31N 29°49' W 093°21'4 8.1
2017-Nov-19 18:01N 29°53' W 093°21'4 7.0
2017-Nov-19 17:31N 29°57' W 093°20'3 6.6
2017-Nov-19 17:01N 30°00' W 093°20'3 5.0
2017-Nov-19 16:31N 30°03' W 093°20'3 6.0
2017-Nov-19 16:01N 30°06' W 093°20'3 5.2
2017-Nov-19 15:31N 30°08' W 093°20'2 4.2
2017-Nov-19 15:00N 30°10' W 093°19'0 0.6
2017-Nov-19 14:31N 30°11' W 093°19'0 0.0
2017-Nov-19 13:59N 30°11' W 093°19'0 0.0
2017-Nov-19 13:29N 30°11' W 093°19'0 0.0
2017-Nov-19 12:59N 30°11' W 093°19'0 0.0
2017-Nov-19 12:29N 30°11' W 093°19'0 0.0
2017-Nov-19 11:59N 30°11' W 093°19'0 0.0
2017-Nov-19 11:29N 30°11' W 093°19'0 0.0
2017-Nov-19 10:59N 30°11' W 093°19'0 0.0
2017-Nov-19 10:29N 30°11' W 093°19'0 0.0
2017-Nov-19 09:59N 30°11' W 093°19'0 0.0
2017-Nov-19 09:29N 30°11' W 093°19'0 0.0
2017-Nov-19 08:59N 30°11' W 093°19'0 0.0
2017-Nov-19 08:29N 30°11' W 093°19'0 0.0
2017-Nov-19 07:59N 30°11' W 093°19'0 0.0
2017-Nov-19 07:29N 30°11' W 093°19'0 0.0
2017-Nov-19 06:59N 30°11' W 093°19'0 0.0
2017-Nov-19 06:29N 30°11' W 093°19'0 0.0
2017-Nov-19 05:59N 30°11' W 093°19'0 0.0
2017-Nov-19 05:29N 30°11' W 093°19'0 0.0
2017-Nov-19 04:59N 30°11' W 093°19'0 0.0
2017-Nov-19 04:29N 30°11' W 093°19'0 0.0
2017-Nov-19 03:56N 30°11' W 093°19'0 0.0
2017-Nov-19 03:29N 30°11' W 093°19'0 0.0
2017-Nov-19 02:59N 30°11' W 093°19'0 0.0
2017-Nov-19 02:29N 30°11' W 093°19'0 0.0
2017-Nov-19 01:59N 30°11' W 093°19'0 0.0
2017-Nov-19 01:29N 30°11' W 093°19'0 0.0
2017-Nov-19 00:59N 30°11' W 093°19'0 0.0
2017-Nov-19 00:29N 30°11' W 093°19'0 0.0
2017-Nov-18 23:59N 30°11' W 093°19'0 0.0
2017-Nov-18 23:29N 30°11' W 093°19'0 0.0
2017-Nov-18 22:59N 30°11' W 093°19'0 0.0
2017-Nov-18 22:29N 30°11' W 093°19'0 0.0
2017-Nov-18 21:59N 30°11' W 093°19'0 0.0
2017-Nov-18 21:29N 30°11' W 093°19'0 0.0
2017-Nov-18 20:59N 30°11' W 093°19'0 0.0
2017-Nov-18 20:29N 30°11' W 093°19'0 0.0
2017-Nov-18 19:59N 30°11' W 093°19'0 0.0
2017-Nov-18 19:29N 30°11' W 093°19'0 0.0
2017-Nov-18 18:59N 30°11' W 093°19'0 0.0
2017-Nov-18 18:29N 30°11' W 093°19'0 0.0
2017-Nov-18 17:59N 30°11' W 093°19'0 0.0
2017-Nov-18 17:29N 30°11' W 093°19'0 0.0
2017-Nov-18 16:59N 30°11' W 093°19'0 0.0
2017-Nov-18 16:26N 30°11' W 093°19'0 0.0
2017-Nov-18 15:59N 30°11' W 093°19'0 0.0
2017-Nov-18 15:29N 30°11' W 093°19'0 0.0
2017-Nov-18 14:59N 30°11' W 093°19'0 0.0
2017-Nov-18 14:29N 30°11' W 093°19'0 0.0
2017-Nov-18 13:59N 30°11' W 093°19'0 0.0
2017-Nov-18 13:29N 30°11' W 093°19'0 0.0
2017-Nov-18 12:59N 30°11' W 093°19'0 0.0
2017-Nov-18 12:29N 30°11' W 093°19'0 0.0
2017-Nov-18 11:59N 30°11' W 093°19'0 0.0
2017-Nov-18 11:29N 30°11' W 093°19'0 0.0
2017-Nov-18 10:56N 30°11' W 093°19'0 0.0
2017-Nov-18 10:29N 30°11' W 093°19'0 0.0
2017-Nov-18 09:59N 30°11' W 093°19'0 0.0
2017-Nov-18 09:23N 30°11' W 093°19'0 0.0
2017-Nov-18 08:59N 30°11' W 093°19'0 0.0
2017-Nov-18 08:29N 30°11' W 093°19'0 0.0
2017-Nov-18 07:59N 30°11' W 093°19'0 0.0
2017-Nov-18 07:29N 30°11' W 093°19'0 0.0
2017-Nov-18 06:59N 30°11' W 093°19'0 0.0
2017-Nov-18 06:29N 30°11' W 093°19'0 0.0
2017-Nov-18 05:59N 30°11' W 093°19'0 0.0
2017-Nov-18 05:26N 30°11' W 093°19'0 0.0
2017-Nov-18 04:59N 30°11' W 093°19'0 0.0
2017-Nov-18 04:29N 30°11' W 093°19'0 0.0
2017-Nov-18 03:59N 30°11' W 093°19'0 0.0
2017-Nov-18 03:29N 30°11' W 093°19'0 0.0
2017-Nov-18 02:59N 30°11' W 093°19'0 0.0
2017-Nov-18 02:29N 30°11' W 093°19'0 0.0
2017-Nov-18 01:59N 30°11' W 093°19'0 0.0
2017-Nov-18 01:29N 30°11' W 093°19'0 0.0
2017-Nov-18 00:59N 30°11' W 093°19'0 0.0
2017-Nov-18 00:29N 30°11' W 093°19'0 0.0
2017-Nov-17 23:59N 30°11' W 093°19'0 0.0
2017-Nov-17 23:29N 30°11' W 093°19'0 0.0
2017-Nov-17 22:59N 30°11' W 093°19'0 0.0
2017-Nov-17 22:29N 30°11' W 093°19'0 0.0
2017-Nov-17 21:59N 30°11' W 093°19'0 0.0
2017-Nov-17 21:29N 30°11' W 093°19'0 0.0
2017-Nov-17 20:59N 30°11' W 093°19'0 0.0
2017-Nov-17 20:29N 30°11' W 093°19'0 0.0
2017-Nov-17 19:59N 30°11' W 093°19'0 0.0
2017-Nov-17 19:29N 30°11' W 093°19'0 0.1
2017-Nov-17 19:01N 30°11' W 093°19'0 0.2
2017-Nov-17 18:31N 30°11' W 093°19'2 4.1
2017-Nov-17 18:00N 30°09' W 093°20'4 7.1
2017-Nov-17 17:31N 30°05' W 093°20'3 5.6
2017-Nov-17 17:00N 30°02' W 093°20'3 5.6
2017-Nov-17 16:31N 29°60' W 093°20'4 8.9
2017-Nov-17 16:00N 29°55' W 093°20'5 9.0
2017-Nov-17 15:30N 29°51' W 093°21'4 8.4
2017-Nov-17 15:01N 29°47' W 093°21'610.6
2017-Nov-17 14:28N 29°41' W 093°20'4 9.1
2017-Nov-17 14:00N 29°38' W 093°17'0 0.1
2017-Nov-17 11:08N 29°37' W 093°17'0 0.0
2017-Nov-17 05:23N 29°37' W 093°17'0 0.0
2017-Nov-17 04:59N 29°37' W 093°17'0 0.0
2017-Nov-17 03:38N 29°37' W 093°17'0 0.0
2017-Nov-17 03:17N 29°37' W 093°17'0 0.0
2017-Nov-17 02:38N 29°37' W 093°17'0 0.0
2017-Nov-17 02:23N 29°37' W 093°17'0 0.0
2017-Nov-17 01:59N 29°37' W 093°17'0 0.1
2017-Nov-17 01:20N 29°37' W 093°17'0 1.3
2017-Nov-17 01:00N 29°37' W 093°17'15712.1
2017-Nov-16 12:00N 27°36' W 091°24'33514.0 030 / 51017.110.8 21.0
2017-Nov-15 12:00N 26°00' W 085°24'27711.5 050 / 131014.810.8 21.0
2017-Nov-14 12:00N 24°42' W 080°30'4513.4 050 / 191013.910.8 23.0
2017-Nov-14 08:37N 25°20' W 080°02'212.2
2017-Nov-14 08:26N 25°22' W 080°01'611.6
2017-Nov-14 07:54N 25°28' W 079°60'511.9
2017-Nov-14 07:30N 25°32' W 079°60'611.6
2017-Nov-14 07:00N 25°38' W 079°59'611.5
2017-Nov-14 06:30N 25°44' W 079°58'611.7
2017-Nov-14 06:00N 25°50' W 079°58'611.8
2017-Nov-14 05:30N 25°55' W 079°59'611.5
2017-Nov-14 05:00N 26°01' W 080°01'611.6
2017-Nov-14 04:30N 26°05' W 080°05'2 3.9
2017-Nov-14 04:00N 26°06' W 080°07'0 0.0
2017-Nov-14 03:15N 26°06' W 080°07'0 0.0
2017-Nov-14 02:51N 26°06' W 080°07'0 0.0
2017-Nov-14 02:30N 26°06' W 080°07'0 0.0
2017-Nov-14 01:51N 26°06' W 080°07'0 0.0
2017-Nov-14 01:21N 26°06' W 080°07'0 0.0
2017-Nov-14 00:51N 26°06' W 080°07'0 0.0
2017-Nov-14 00:24N 26°06' W 080°07'0 0.0
2017-Nov-13 23:54N 26°06' W 080°07'0 0.0
2017-Nov-13 23:21N 26°06' W 080°07'0 0.0
2017-Nov-13 22:54N 26°06' W 080°07'0 0.0
2017-Nov-13 22:24N 26°06' W 080°07'0 0.0
2017-Nov-13 21:54N 26°06' W 080°07'0 0.0
2017-Nov-13 01:45N 26°06' W 080°07'0 0.0
2017-Nov-13 01:30N 26°06' W 080°07'0 0.0
2017-Nov-13 00:57N 26°06' W 080°07'0 0.0
2017-Nov-13 00:27N 26°06' W 080°07'0 0.0
2017-Nov-12 23:45N 26°06' W 080°07'0 0.0
2017-Nov-12 23:15N 26°06' W 080°07'0 0.0
2017-Nov-12 22:51N 26°06' W 080°07'0 0.0
2017-Nov-12 22:21N 26°06' W 080°07'0 0.0
2017-Nov-12 21:51N 26°06' W 080°07'0 0.0
2017-Nov-12 19:33N 26°06' W 080°07'0 0.0
2017-Nov-12 19:09N 26°06' W 080°07'0 0.0
2017-Nov-12 18:56N 26°06' W 080°07'1 1.2
2017-Nov-12 18:30N 26°06' W 080°07'4 7.3
2017-Nov-12 18:00N 26°05' W 080°03'3 6.4
2017-Nov-12 17:30N 26°02' W 080°01'510.7
2017-Nov-12 17:00N 25°57' W 080°00'713.3
2017-Nov-12 16:31N 25°51' W 079°58'713.7
2017-Nov-12 16:00N 25°44' W 079°56'613.0
2017-Nov-12 15:30N 25°38' W 079°54'612.8
2017-Nov-12 15:00N 25°31' W 079°55'713.6
2017-Nov-12 14:30N 25°25' W 079°56'714.1
2017-Nov-12 13:59N 25°18' W 079°58'18713.6
2017-Nov-12 00:14N 24°15' W 083°13'313.0
2017-Nov-11 23:59N 24°15' W 083°16'612.3
2017-Nov-11 23:30N 24°18' W 083°22'48613.7
2017-Nov-10 12:00N 27°36' W 091°36'15611.8 060 / 191020.210.8 18.0
2017-Nov-09 22:47N 29°42' W 093°20'3 9.2
2017-Nov-09 22:30N 29°44' W 093°20'4 8.5
2017-Nov-09 22:00N 29°49' W 093°21'5 9.1
2017-Nov-09 21:30N 29°53' W 093°21'4 8.2
2017-Nov-09 21:00N 29°57' W 093°20'3 6.8
2017-Nov-09 20:30N 30°01' W 093°20'3 6.3
2017-Nov-09 20:00N 30°04' W 093°20'3 6.7
2017-Nov-09 19:30N 30°07' W 093°20'  
Track history (hours):
 
Tides and Currents Weather Stations Pressure Air Temp Water Temp Dewpoint Dewpoint Depression Visibility Wind Speed Wind Dir Waves Ship Positions

Seabulk Arctic

Owner: LIGHTSHIP TANKERS IV LLC, FORT LAUDERDALE, FL. More information available from US FCC via Universal Licensing System and Coast Guard Vessel Documentation Center.

Last reported at 2017-Nov-19 19:18 UTC. Time now 2017-Nov-20 16:55 UTC.
Position N 29°44' W 093°20'.

Type: Tanker. MMSI: 366826000.

Date/timePositionNaut miles runAvg speedWind from/ knotsBaromVisibWave heightAir tempDewpointWater temp
2017-Nov-19 19:18N 29°44' W 093°20'2 8.5
2017-Nov-19 19:00N 29°46' W 093°21'3 6.1
2017-Nov-19 18:31N 29°49' W 093°21'4 8.1
2017-Nov-19 18:01N 29°53' W 093°21'4 7.0
2017-Nov-19 17:31N 29°57' W 093°20'3 6.6
2017-Nov-19 17:01N 30°00' W 093°20'3 5.0
2017-Nov-19 16:31N 30°03' W 093°20'3 6.0
2017-Nov-19 16:01N 30°06' W 093°20'3 5.2
2017-Nov-19 15:31N 30°08' W 093°20'2 4.2
2017-Nov-19 15:00N 30°10' W 093°19'0 0.6
2017-Nov-19 14:31N 30°11' W 093°19'0 0.0
2017-Nov-19 13:59N 30°11' W 093°19'0 0.0
2017-Nov-19 13:29N 30°11' W 093°19'0 0.0
2017-Nov-19 12:59N 30°11' W 093°19'0 0.0
2017-Nov-19 12:29N 30°11' W 093°19'0 0.0
2017-Nov-19 11:59N 30°11' W 093°19'0 0.0
2017-Nov-19 11:29N 30°11' W 093°19'0 0.0
2017-Nov-19 10:59N 30°11' W 093°19'0 0.0
2017-Nov-19 10:29N 30°11' W 093°19'0 0.0
2017-Nov-19 09:59N 30°11' W 093°19'0 0.0
2017-Nov-19 09:29N 30°11' W 093°19'0 0.0
2017-Nov-19 08:59N 30°11' W 093°19'0 0.0
2017-Nov-19 08:29N 30°11' W 093°19'0 0.0
2017-Nov-19 07:59N 30°11' W 093°19'0 0.0
2017-Nov-19 07:29N 30°11' W 093°19'0 0.0
2017-Nov-19 06:59N 30°11' W 093°19'0 0.0
2017-Nov-19 06:29N 30°11' W 093°19'0 0.0
2017-Nov-19 05:59N 30°11' W 093°19'0 0.0
2017-Nov-19 05:29N 30°11' W 093°19'0 0.0
2017-Nov-19 04:59N 30°11' W 093°19'0 0.0
2017-Nov-19 04:29N 30°11' W 093°19'0 0.0
2017-Nov-19 03:56N 30°11' W 093°19'0 0.0
2017-Nov-19 03:29N 30°11' W 093°19'0 0.0
2017-Nov-19 02:59N 30°11' W 093°19'0 0.0
2017-Nov-19 02:29N 30°11' W 093°19'0 0.0
2017-Nov-19 01:59N 30°11' W 093°19'0 0.0
2017-Nov-19 01:29N 30°11' W 093°19'0 0.0
2017-Nov-19 00:59N 30°11' W 093°19'0 0.0
2017-Nov-19 00:29N 30°11' W 093°19'0 0.0
2017-Nov-18 23:59N 30°11' W 093°19'0 0.0
2017-Nov-18 23:29N 30°11' W 093°19'0 0.0
2017-Nov-18 22:59N 30°11' W 093°19'0 0.0
2017-Nov-18 22:29N 30°11' W 093°19'0 0.0
2017-Nov-18 21:59N 30°11' W 093°19'0 0.0
2017-Nov-18 21:29N 30°11' W 093°19'0 0.0
2017-Nov-18 20:59N 30°11' W 093°19'0 0.0
2017-Nov-18 20:29N 30°11' W 093°19'0 0.0
2017-Nov-18 19:59N 30°11' W 093°19'0 0.0
2017-Nov-18 19:29N 30°11' W 093°19'0 0.0
2017-Nov-18 18:59N 30°11' W 093°19'0 0.0
2017-Nov-18 18:29N 30°11' W 093°19'0 0.0
2017-Nov-18 17:59N 30°11' W 093°19'0 0.0
2017-Nov-18 17:29N 30°11' W 093°19'0 0.0
2017-Nov-18 16:59N 30°11' W 093°19'0 0.0
2017-Nov-18 16:26N 30°11' W 093°19'0 0.0
2017-Nov-18 15:59N 30°11' W 093°19'0 0.0
2017-Nov-18 15:29N 30°11' W 093°19'0 0.0
2017-Nov-18 14:59N 30°11' W 093°19'0 0.0
2017-Nov-18 14:29N 30°11' W 093°19'0 0.0
2017-Nov-18 13:59N 30°11' W 093°19'0 0.0
2017-Nov-18 13:29N 30°11' W 093°19'0 0.0
2017-Nov-18 12:59N 30°11' W 093°19'0 0.0
2017-Nov-18 12:29N 30°11' W 093°19'0 0.0
2017-Nov-18 11:59N 30°11' W 093°19'0 0.0
2017-Nov-18 11:29N 30°11' W 093°19'0 0.0
2017-Nov-18 10:56N 30°11' W 093°19'0 0.0
2017-Nov-18 10:29N 30°11' W 093°19'0 0.0
2017-Nov-18 09:59N 30°11' W 093°19'0 0.0
2017-Nov-18 09:23N 30°11' W 093°19'0 0.0
2017-Nov-18 08:59N 30°11' W 093°19'0 0.0
2017-Nov-18 08:29N 30°11' W 093°19'0 0.0
2017-Nov-18 07:59N 30°11' W 093°19'0 0.0
2017-Nov-18 07:29N 30°11' W 093°19'0 0.0
2017-Nov-18 06:59N 30°11' W 093°19'0 0.0
2017-Nov-18 06:29N 30°11' W 093°19'0 0.0
2017-Nov-18 05:59N 30°11' W 093°19'0 0.0
2017-Nov-18 05:26N 30°11' W 093°19'0 0.0
2017-Nov-18 04:59N 30°11' W 093°19'0 0.0
2017-Nov-18 04:29N 30°11' W 093°19'0 0.0
2017-Nov-18 03:59N 30°11' W 093°19'0 0.0
2017-Nov-18 03:29N 30°11' W 093°19'0 0.0
2017-Nov-18 02:59N 30°11' W 093°19'0 0.0
2017-Nov-18 02:29N 30°11' W 093°19'0 0.0
2017-Nov-18 01:59N 30°11' W 093°19'0 0.0
2017-Nov-18 01:29N 30°11' W 093°19'0 0.0
2017-Nov-18 00:59N 30°11' W 093°19'0 0.0
2017-Nov-18 00:29N 30°11' W 093°19'0 0.0
2017-Nov-17 23:59N 30°11' W 093°19'0 0.0
2017-Nov-17 23:29N 30°11' W 093°19'0 0.0
2017-Nov-17 22:59N 30°11' W 093°19'0 0.0
2017-Nov-17 22:29N 30°11' W 093°19'0 0.0
2017-Nov-17 21:59N 30°11' W 093°19'0 0.0
2017-Nov-17 21:29N 30°11' W 093°19'0 0.0
2017-Nov-17 20:59N 30°11' W 093°19'0 0.0
2017-Nov-17 20:29N 30°11' W 093°19'0 0.0
2017-Nov-17 19:59N 30°11' W 093°19'0 0.0
2017-Nov-17 19:29N 30°11' W 093°19'0 0.1
2017-Nov-17 19:01N 30°11' W 093°19'0 0.2
2017-Nov-17 18:31N 30°11' W 093°19'2 4.1
2017-Nov-17 18:00N 30°09' W 093°20'4 7.1
2017-Nov-17 17:31N 30°05' W 093°20'3 5.6
2017-Nov-17 17:00N 30°02' W 093°20'3 5.6
2017-Nov-17 16:31N 29°60' W 093°20'4 8.9
2017-Nov-17 16:00N 29°55' W 093°20'5 9.0
2017-Nov-17 15:30N 29°51' W 093°21'4 8.4
2017-Nov-17 15:01N 29°47' W 093°21'610.6
2017-Nov-17 14:28N 29°41' W 093°20'4 9.1
2017-Nov-17 14:00N 29°38' W 093°17'0 0.1
2017-Nov-17 11:08N 29°37' W 093°17'0 0.0
2017-Nov-17 05:23N 29°37' W 093°17'0 0.0
2017-Nov-17 04:59N 29°37' W 093°17'0 0.0
2017-Nov-17 03:38N 29°37' W 093°17'0 0.0
2017-Nov-17 03:17N 29°37' W 093°17'0 0.0
2017-Nov-17 02:38N 29°37' W 093°17'0 0.0
2017-Nov-17 02:23N 29°37' W 093°17'0 0.0
2017-Nov-17 01:59N 29°37' W 093°17'0 0.1
2017-Nov-17 01:20N 29°37' W 093°17'0 1.3
2017-Nov-17 01:00N 29°37' W 093°17'15712.1
2017-Nov-16 12:00N 27°36' W 091°24'33514.0 030 / 51017.110.8 21.0
2017-Nov-15 12:00N 26°00' W 085°24'27711.5 050 / 131014.810.8 21.0
2017-Nov-14 12:00N 24°42' W 080°30'4513.4 050 / 191013.910.8 23.0
2017-Nov-14 08:37N 25°20' W 080°02'212.2
2017-Nov-14 08:26N 25°22' W 080°01'611.6
2017-Nov-14 07:54N 25°28' W 079°60'511.9
2017-Nov-14 07:30N 25°32' W 079°60'611.6
2017-Nov-14 07:00N 25°38' W 079°59'611.5
2017-Nov-14 06:30N 25°44' W 079°58'611.7
2017-Nov-14 06:00N 25°50' W 079°58'611.8
2017-Nov-14 05:30N 25°55' W 079°59'611.5
2017-Nov-14 05:00N 26°01' W 080°01'611.6
2017-Nov-14 04:30N 26°05' W 080°05'2 3.9
2017-Nov-14 04:00N 26°06' W 080°07'0 0.0
2017-Nov-14 03:15N 26°06' W 080°07'0 0.0
2017-Nov-14 02:51N 26°06' W 080°07'0 0.0
2017-Nov-14 02:30N 26°06' W 080°07'0 0.0
2017-Nov-14 01:51N 26°06' W 080°07'0 0.0
2017-Nov-14 01:21N 26°06' W 080°07'0 0.0
2017-Nov-14 00:51N 26°06' W 080°07'0 0.0
2017-Nov-14 00:24N 26°06' W 080°07'0 0.0
2017-Nov-13 23:54N 26°06' W 080°07'0 0.0
2017-Nov-13 23:21N 26°06' W 080°07'0 0.0
2017-Nov-13 22:54N 26°06' W 080°07'0 0.0
2017-Nov-13 22:24N 26°06' W 080°07'0 0.0
2017-Nov-13 21:54N 26°06' W 080°07'0 0.0
2017-Nov-13 01:45N 26°06' W 080°07'0 0.0
2017-Nov-13 01:30N 26°06' W 080°07'0 0.0
2017-Nov-13 00:57N 26°06' W 080°07'0 0.0
2017-Nov-13 00:27N 26°06' W 080°07'0 0.0
2017-Nov-12 23:45N 26°06' W 080°07'0 0.0
2017-Nov-12 23:15N 26°06' W 080°07'0 0.0
2017-Nov-12 22:51N 26°06' W 080°07'0 0.0
2017-Nov-12 22:21N 26°06' W 080°07'0 0.0
2017-Nov-12 21:51N 26°06' W 080°07'0 0.0
2017-Nov-12 19:33N 26°06' W 080°07'0 0.0
2017-Nov-12 19:09N 26°06' W 080°07'0 0.0
2017-Nov-12 18:56N 26°06' W 080°07'1 1.2
2017-Nov-12 18:30N 26°06' W 080°07'4 7.3
2017-Nov-12 18:00N 26°05' W 080°03'3 6.4
2017-Nov-12 17:30N 26°02' W 080°01'510.7
2017-Nov-12 17:00N 25°57' W 080°00'713.3
2017-Nov-12 16:31N 25°51' W 079°58'713.7
2017-Nov-12 16:00N 25°44' W 079°56'613.0
2017-Nov-12 15:30N 25°38' W 079°54'612.8
2017-Nov-12 15:00N 25°31' W 079°55'713.6
2017-Nov-12 14:30N 25°25' W 079°56'714.1
2017-Nov-12 13:59N 25°18' W 079°58'18713.6
2017-Nov-12 00:14N 24°15' W 083°13'313.0
2017-Nov-11 23:59N 24°15' W 083°16'612.3
2017-Nov-11 23:30N 24°18' W 083°22'48613.7
2017-Nov-10 12:00N 27°36' W 091°36'15611.8 060 / 191020.210.8 18.0
2017-Nov-09 22:47N 29°42' W 093°20'3 9.2
2017-Nov-09 22:30N 29°44' W 093°20'4 8.5
2017-Nov-09 22:00N 29°49' W 093°21'5 9.1
2017-Nov-09 21:30N 29°53' W 093°21'4 8.2
2017-Nov-09 21:00N 29°57' W 093°20'3 6.8
2017-Nov-09 20:30N 30°01' W 093°20'3 6.3
2017-Nov-09 20:00N 30°04' W 093°20'3 6.7
2017-Nov-09 19:30N 30°07' W 093°20'  

Dump ship's entire track history